createdAt,value
2022-10-18T00:03:44.147Z,0.2
2022-10-18T00:08:43.432Z,0.2
2022-10-18T00:13:43.253Z,0.2
2022-10-18T00:18:42.892Z,0.2
2022-10-18T00:23:42.243Z,0.2
2022-10-18T00:28:41.974Z,0.2
2022-10-18T00:33:41.279Z,0.2
2022-10-18T00:38:41.714Z,0.2
2022-10-18T00:43:41.777Z,0.2
2022-10-18T00:48:38.861Z,0.2
2022-10-18T00:53:38.283Z,0.2
2022-10-18T00:58:37.198Z,0.2
2022-10-18T00:59:58.385Z,0.2
2022-10-18T01:04:57.970Z,0.2
2022-10-18T01:09:58.480Z,0.2
2022-10-18T01:14:57.646Z,0.2
2022-10-18T01:19:57.756Z,0.2
2022-10-18T01:24:55.564Z,0.2
2022-10-18T01:29:54.991Z,0.2
2022-10-18T01:34:54.115Z,0.2
2022-10-18T01:39:53.795Z,0.1
2022-10-18T01:44:52.563Z,0.2
2022-10-18T01:49:52.029Z,0.2
2022-10-18T01:54:51.716Z,0.2
2022-10-18T01:58:57.214Z,0.2
2022-10-18T02:03:56.900Z,0.2
2022-10-18T02:08:56.143Z,0.2
2022-10-18T02:13:55.779Z,0.2
2022-10-18T02:18:54.748Z,0.2
2022-10-18T02:23:56.793Z,0.2
2022-10-18T02:28:53.635Z,0.2
2022-10-18T02:33:52.921Z,0.2
2022-10-18T02:38:52.298Z,0.2
2022-10-18T02:43:51.818Z,0.2
2022-10-18T02:48:51.164Z,0.2
2022-10-18T02:53:50.787Z,0.2
2022-10-18T02:58:50.428Z,0.2
2022-10-18T03:03:51.116Z,0.2
2022-10-18T03:08:48.164Z,0.2
2022-10-18T03:13:48.299Z,0.2
2022-10-18T03:18:47.187Z,0.2
2022-10-18T03:23:47.042Z,0.2
2022-10-18T03:28:45.236Z,0.2
2022-10-18T03:33:44.785Z,0.2
2022-10-18T03:38:44.801Z,0.2
2022-10-18T03:43:44.299Z,0.2
2022-10-18T03:48:43.260Z,0.2
2022-10-18T03:53:43.060Z,0.2
2022-10-18T03:58:42.675Z,0.2
2022-10-18T04:03:42.260Z,0.2
2022-10-18T04:08:43.074Z,0.2
2022-10-18T04:13:39.709Z,0.2
2022-10-18T04:18:39.017Z,0.2
2022-10-18T04:23:40.269Z,0.2
2022-10-18T04:28:38.012Z,0.2
2022-10-18T04:33:37.533Z,0.2
2022-10-18T04:38:37.361Z,0.2
2022-10-18T04:43:36.933Z,0.2
2022-10-18T04:48:37.851Z,0.2
2022-10-18T04:53:35.706Z,0.2
2022-10-18T04:58:34.564Z,0.2
2022-10-18T04:59:55.904Z,0.2
2022-10-18T05:04:55.978Z,0.2
2022-10-18T05:09:53.869Z,0.1
2022-10-18T05:14:54.517Z,0.2
2022-10-18T05:19:53.260Z,0.2
2022-10-18T05:24:52.757Z,0.3
2022-10-18T05:29:52.018Z,0.4
2022-10-18T05:34:51.642Z,0.5
2022-10-18T05:39:51.575Z,0.7
2022-10-18T05:44:50.748Z,1.6
2022-10-18T05:49:51.669Z,2.6
2022-10-18T05:54:48.331Z,3.4
2022-10-18T05:59:14.812Z,3.8
2022-10-18T06:04:14.324Z,4.3
2022-10-18T06:09:13.582Z,4.6
2022-10-18T06:14:12.958Z,6.4
2022-10-18T06:19:12.572Z,7.6
2022-10-18T06:24:12.235Z,10.4
2022-10-18T06:29:13.413Z,10
2022-10-18T06:34:09.808Z,11.3
2022-10-18T06:39:09.640Z,15.8
2022-10-18T06:44:09.688Z,17.3
2022-10-18T06:49:09.553Z,18.4
2022-10-18T06:54:20.085Z,27.6
2022-10-18T06:58:53.561Z,25.1
2022-10-18T07:03:53.440Z,25.2
2022-10-18T07:08:53.324Z,48.6
2022-10-18T07:13:52.427Z,18.8
2022-10-18T07:18:51.686Z,18.2
2022-10-18T07:23:51.748Z,20.7
2022-10-18T07:28:51.149Z,21.9
2022-10-18T07:33:48.938Z,30.4
2022-10-18T07:38:48.599Z,21.1
2022-10-18T07:43:48.968Z,25.2
2022-10-18T07:48:48.146Z,33.3
2022-10-18T07:53:47.550Z,45.1
2022-10-18T07:58:46.766Z,37.1
2022-10-18T08:03:46.475Z,26
2022-10-18T08:08:45.619Z,55.3
2022-10-18T08:13:46.129Z,100.7
2022-10-18T08:18:43.213Z,76.5
2022-10-18T08:23:43.417Z,137.1
2022-10-18T08:29:10.615Z,202.9
2022-10-18T08:34:39.875Z,159.5
2022-10-18T08:38:41.211Z,165.8
2022-10-18T08:43:40.680Z,145.3
2022-10-18T08:48:40.631Z,84.6
2022-10-18T08:53:41.757Z,123
2022-10-18T08:58:39.284Z,177.7
2022-10-18T09:03:39.219Z,131.4
2022-10-18T09:08:39.000Z,97.8
2022-10-18T09:13:38.870Z,75.5
2022-10-18T09:18:37.576Z,59
2022-10-18T09:23:37.033Z,63.1
2022-10-18T09:28:37.447Z,59.2
2022-10-18T09:33:36.378Z,77.9
2022-10-18T09:38:36.039Z,110.4
2022-10-18T09:43:35.214Z,141.2
2022-10-18T09:48:35.130Z,112.1
2022-10-18T09:53:34.564Z,77.4
2022-10-18T09:58:35.122Z,105
2022-10-18T09:59:55.624Z,126
2022-10-18T10:04:55.785Z,135.9
2022-10-18T10:09:54.471Z,151
2022-10-18T10:14:54.236Z,452.1
2022-10-18T10:19:52.684Z,480
2022-10-18T10:24:52.514Z,141.4
2022-10-18T10:29:52.839Z,146.4
2022-10-18T10:34:52.219Z,634.8
2022-10-18T10:40:19.760Z,373.7
2022-10-18T10:44:51.605Z,186.8
2022-10-18T10:49:51.364Z,240.8
2022-10-18T10:55:05.668Z,637.2
2022-10-18T10:59:13.265Z,587.2
2022-10-18T11:04:13.399Z,553.9
2022-10-18T11:09:13.228Z,518.2
2022-10-18T11:14:28.164Z,601.4
2022-10-18T11:19:11.469Z,133.5
2022-10-18T11:24:11.278Z,137.3
2022-10-18T11:29:10.761Z,43.6
2022-10-18T11:34:11.529Z,46.1
2022-10-18T11:39:07.626Z,48
2022-10-18T11:44:06.725Z,510
2022-10-18T11:49:06.719Z,512.1
2022-10-18T11:54:06.448Z,512.7
2022-10-18T11:58:52.921Z,513.9
2022-10-18T12:03:53.191Z,244.2
2022-10-18T12:08:53.655Z,298.6
2022-10-18T12:13:52.981Z,158.5
2022-10-18T12:18:54.352Z,70.1
2022-10-18T12:23:50.194Z,80
2022-10-18T12:28:49.921Z,55.2
2022-10-18T12:33:48.832Z,56.7
2022-10-18T12:38:48.087Z,47.6
2022-10-18T12:43:47.121Z,55.6
2022-10-18T12:48:47.380Z,91.7
2022-10-18T12:53:45.834Z,109.4
2022-10-18T12:58:46.538Z,117.5
2022-10-18T13:03:43.600Z,122.5
2022-10-18T13:08:43.733Z,88.4
2022-10-18T13:13:42.513Z,78.3
2022-10-18T13:18:42.405Z,88.9
2022-10-18T13:23:40.306Z,100.3
2022-10-18T13:28:40.308Z,106.4
2022-10-18T13:33:39.829Z,103.9
2022-10-18T13:38:39.395Z,95.5
2022-10-18T13:43:38.745Z,80.9
2022-10-18T13:48:38.437Z,76.7
2022-10-18T13:53:37.485Z,77
2022-10-18T13:59:05.631Z,75.9
2022-10-18T13:59:58.397Z,74.6
2022-10-18T14:05:26.310Z,70.1
2022-10-18T14:10:04.997Z,71
2022-10-18T14:14:57.315Z,71.1
2022-10-18T14:19:56.299Z,62.8
2022-10-18T14:24:56.026Z,54.8
2022-10-18T14:29:55.513Z,43.7
2022-10-18T14:35:32.385Z,34.2
2022-10-18T14:39:55.706Z,32.5
2022-10-18T14:44:57.529Z,27.8
2022-10-18T14:49:52.653Z,22.6
2022-10-18T14:54:51.871Z,25.8
2022-10-18T14:58:58.485Z,22.9
2022-10-18T15:03:57.123Z,18.2
2022-10-18T15:08:56.439Z,20.8
2022-10-18T15:13:56.884Z,20.4
2022-10-18T15:18:55.917Z,17.9
2022-10-18T15:23:55.468Z,17.3
2022-10-18T15:28:54.842Z,16.3
2022-10-18T15:33:54.559Z,13.3
2022-10-18T15:38:54.527Z,11.7
2022-10-18T15:43:53.022Z,9.4
2022-10-18T15:48:52.653Z,7.4
2022-10-18T15:53:52.782Z,6.6
2022-10-18T15:58:51.704Z,5.4
2022-10-18T16:03:51.092Z,4.3
2022-10-18T16:08:49.913Z,4.1
2022-10-18T16:13:50.404Z,3.5
2022-10-18T16:18:48.849Z,2.3
2022-10-18T16:23:50.667Z,1.4
2022-10-18T16:28:47.232Z,0.9
2022-10-18T16:33:46.994Z,0.7
2022-10-18T16:38:45.685Z,0.6
2022-10-18T16:43:45.472Z,0.5
2022-10-18T16:48:43.806Z,0.4
2022-10-18T16:53:43.706Z,0.3
2022-10-18T16:58:43.461Z,0.3
2022-10-18T17:03:43.059Z,0.3
2022-10-18T17:08:42.248Z,0.3
2022-10-18T17:13:42.002Z,0.3
2022-10-18T17:18:41.708Z,0.3
2022-10-18T17:23:41.294Z,0.3
2022-10-18T17:28:39.377Z,0.3
2022-10-18T17:33:38.767Z,0.3
2022-10-18T17:38:38.477Z,0.3
2022-10-18T17:43:38.088Z,0.3
2022-10-18T17:48:37.027Z,0.3
2022-10-18T17:53:36.593Z,0.3
2022-10-18T17:58:36.180Z,0.3
2022-10-18T17:59:58.427Z,0.3
2022-10-18T18:05:48.878Z,0.3
2022-10-18T18:09:57.686Z,0.2
2022-10-18T18:14:57.461Z,0.3
2022-10-18T18:19:58.129Z,0.3
2022-10-18T18:24:55.019Z,0.3
2022-10-18T18:29:55.166Z,0.3
2022-10-18T18:34:55.039Z,0.3
2022-10-18T18:39:54.770Z,0.2
2022-10-18T18:44:53.001Z,0.3
2022-10-18T18:49:52.647Z,0.3
2022-10-18T18:54:52.000Z,0.3
2022-10-18T18:59:28.271Z,0.2
2022-10-18T19:04:14.928Z,0.2
2022-10-18T19:09:14.876Z,0.3
2022-10-18T19:14:14.463Z,0.3
2022-10-18T19:19:14.693Z,0.3
2022-10-18T19:24:12.052Z,0.2
2022-10-18T19:29:12.349Z,0.2
2022-10-18T19:34:10.930Z,0.3
2022-10-18T19:39:10.700Z,0.3
2022-10-18T19:44:09.264Z,0.3
2022-10-18T19:49:08.561Z,0.3
2022-10-18T19:54:08.274Z,0.2
2022-10-18T19:58:55.718Z,0.2
2022-10-18T20:03:55.085Z,0.3
2022-10-18T20:08:54.468Z,0.2
2022-10-18T20:13:54.682Z,0.2
2022-10-18T20:18:54.232Z,0.3
2022-10-18T20:23:54.778Z,0.3
2022-10-18T20:28:52.047Z,0.2
2022-10-18T20:33:51.361Z,0.2
2022-10-18T20:38:50.822Z,0.2
2022-10-18T20:43:49.933Z,0.2
2022-10-18T20:48:49.169Z,0.2
2022-10-18T20:53:49.199Z,0.2
2022-10-18T20:58:48.185Z,0.2
2022-10-18T21:03:49.152Z,0.2
2022-10-18T21:08:46.438Z,0.2
2022-10-18T21:13:46.362Z,0.2
2022-10-18T21:18:46.136Z,0.2
2022-10-18T21:23:45.747Z,0.2
2022-10-18T21:28:43.987Z,0.2
2022-10-18T21:33:43.337Z,0.2
2022-10-18T21:38:43.256Z,0.2
2022-10-18T21:43:42.968Z,0.2
2022-10-18T21:48:41.892Z,0.2
2022-10-18T21:53:41.830Z,0.2
2022-10-18T21:58:41.391Z,0.2
2022-10-18T22:03:40.497Z,0.2
2022-10-18T22:08:41.384Z,0.2
2022-10-18T22:13:38.088Z,0.2
2022-10-18T22:18:38.368Z,0.2
2022-10-18T22:23:37.534Z,0.2
2022-10-18T22:28:37.231Z,0.2
2022-10-18T22:33:39.172Z,0.2
2022-10-18T22:38:36.355Z,0.2
2022-10-18T22:43:35.594Z,0.2
2022-10-18T22:48:36.530Z,0.2
2022-10-18T22:53:33.501Z,0.2
2022-10-18T22:58:33.654Z,0.2
2022-10-18T22:59:54.766Z,0.2
2022-10-18T23:04:54.453Z,0.2
2022-10-18T23:09:52.760Z,0.2
2022-10-18T23:14:52.958Z,0.2
2022-10-18T23:19:52.716Z,0.2
2022-10-18T23:24:52.759Z,0.2
2022-10-18T23:29:51.461Z,0.2
2022-10-18T23:34:50.804Z,0.2
2022-10-18T23:39:50.374Z,0.2
2022-10-18T23:44:49.713Z,0.2
2022-10-18T23:49:47.804Z,0.2
2022-10-18T23:54:47.520Z,0.2
2022-10-18T23:59:13.312Z,0.2
